Time;durP1;ratioP1;P1;durP2;ratioP2;P2;SDS_P1;SDS_P2;PMS_P1;PMS_P2;Temp;Humidity;BMP_temperature;BMP_pressure;BME280_temperature;BME280_humidity;BME280_pressure;Samples;Min_cycle;Max_cycle;Signal;HPM_P1;HPM_P2
2021/08/17 00:01:40;;;;;;;;;;;;;;;19.03;79.68;97620.64;1766289;80;20354;-87
2021/08/17 00:04:08;;;;;;;;;;;;;;;19.00;79.64;97616.51;1799567;79;21170;-88
2021/08/17 00:06:40;;;;;;;;;;;;;;;19.01;79.62;97619.98;1770529;80;21924;-88
2021/08/17 00:09:07;;;;;;;;;;;;;;;19.00;79.57;97622.31;1805793;79;25979;-88
2021/08/17 00:11:34;;;;;;;;;;;;;;;18.98;79.50;97629.64;1807270;79;24474;-88
2021/08/17 00:14:00;;;;;;;;;;;;;;;19.07;79.49;97635.18;1807597;78;20274;-88
2021/08/17 00:16:26;;;;;;;;;;;;;;;19.18;79.44;97632.92;1802883;78;20709;-88
2021/08/17 00:18:52;;;;;;;;;;;;;;;19.31;79.41;97643.42;1800960;78;20795;-86
2021/08/17 00:21:18;;;;;;;;;;;;;;;19.38;79.37;97649.62;1798973;78;20934;-87
2021/08/17 00:23:45;;;;;;;;;;;;;;;19.39;79.31;97643.32;1800469;79;20501;-87
2021/08/17 00:26:17;;;;;;;;;;;;;;;19.39;79.27;97637.52;1801346;79;20281;-88
2021/08/17 00:28:43;;;;;;;;;;;;;;;19.43;79.24;97637.96;1804440;79;24996;-88
2021/08/17 00:31:10;;;;;;;;;;;;;;;19.42;79.20;97646.42;1807184;78;20919;-88
2021/08/17 00:33:39;;;;;;;;;;;;;;;19.38;79.18;97643.82;1804097;79;26043;-87
2021/08/17 00:36:06;;;;;;;;;;;;;;;19.34;79.15;97631.10;1803151;78;24313;-88
2021/08/17 00:38:33;;;;;;;;;;;;;;;19.25;79.13;97614.45;1802890;78;20325;-88
2021/08/17 00:40:59;;;;;;;;;;;;;;;19.12;79.12;97612.92;1805210;78;24931;-88
2021/08/17 00:43:25;;;;;;;;;;;;;;;18.99;79.13;97609.55;1806373;78;20855;-88
2021/08/17 00:45:53;;;;;;;;;;;;;;;18.91;79.14;97600.36;1791930;78;21055;-89
2021/08/17 00:48:19;;;;;;;;;;;;;;;18.85;79.18;97605.05;1779711;79;24474;-90
2021/08/17 00:50:46;;;;;;;;;;;;;;;18.82;79.23;97611.22;1809051;79;20350;-90
2021/08/17 00:53:12;;;;;;;;;;;;;;;18.79;79.30;97605.77;1772771;80;25051;-90
2021/08/17 00:55:39;;;;;;;;;;;;;;;18.77;79.36;97601.95;1799719;79;22038;-90
2021/08/17 00:58:09;;;;;;;;;;;;;;;18.73;79.42;97605.14;1799964;79;25337;-90
2021/08/17 01:00:35;;;;;;;;;;;;;;;18.77;79.49;97609.08;1779498;78;24543;-90
2021/08/17 01:03:01;;;;;;;;;;;;;;;18.89;79.56;97613.45;1754297;80;20243;-88
2021/08/17 01:05:33;;;;;;;;;;;;;;;18.91;79.60;97605.66;1780432;79;20247;-88
2021/08/17 01:08:06;;;;;;;;;;;;;;;18.88;79.62;97610.48;1779684;79;22005;-88
2021/08/17 01:10:38;;;;;;;;;;;;;;;19.01;79.67;97622.64;1764958;80;26771;-88
2021/08/17 01:13:04;;;;;;;;;;;;;;;19.12;79.69;97627.50;1798047;79;24528;-88
2021/08/17 01:15:30;;;;;;;;;;;;;;;19.17;79.69;97618.50;1770014;80;20310;-88
2021/08/17 01:17:56;;;;;;;;;;;;;;;19.23;79.63;97615.13;1810409;78;20416;-88
2021/08/17 01:20:22;;;;;;;;;;;;;;;19.28;79.60;97622.54;1806706;79;22065;-88
2021/08/17 01:22:48;;;;;;;;;;;;;;;19.21;79.56;97622.44;1802103;78;21057;-87
2021/08/17 01:25:21;;;;;;;;;;;;;;;19.14;79.54;97621.53;1811071;78;25086;-88
2021/08/17 01:27:46;;;;;;;;;;;;;;;19.08;79.49;97619.59;1807797;78;20345;-88
2021/08/17 01:30:13;;;;;;;;;;;;;;;18.99;79.45;97623.31;1809680;78;20819;-90
2021/08/17 01:32:39;;;;;;;;;;;;;;;18.92;79.46;97617.09;1809317;78;22061;-86
2021/08/17 01:35:05;;;;;;;;;;;;;;;18.84;79.44;97618.47;1797550;78;25982;-86
2021/08/17 01:37:31;;;;;;;;;;;;;;;18.76;79.46;97603.48;1777571;79;24580;-86
2021/08/17 01:39:58;;;;;;;;;;;;;;;18.71;79.46;97600.55;1801910;79;20596;-86
2021/08/17 01:42:25;;;;;;;;;;;;;;;18.68;79.50;97595.08;1775251;80;24924;-86
2021/08/17 01:44:51;;;;;;;;;;;;;;;18.66;79.53;97595.75;1763678;80;21963;-86
2021/08/17 01:47:17;;;;;;;;;;;;;;;18.63;79.54;97588.17;1802120;78;21013;-86
2021/08/17 01:49:43;;;;;;;;;;;;;;;18.66;79.62;97591.78;1804745;79;20400;-86
2021/08/17 01:52:09;;;;;;;;;;;;;;;18.64;79.67;97588.50;1805645;78;20894;-86
2021/08/17 01:54:35;;;;;;;;;;;;;;;18.68;79.73;97592.93;1806047;79;20263;-86
2021/08/17 01:57:01;;;;;;;;;;;;;;;18.66;79.81;97590.45;1810255;78;22027;-87
2021/08/17 01:59:33;;;;;;;;;;;;;;;18.65;79.84;97590.16;1809057;79;20941;-88
2021/08/17 02:01:58;;;;;;;;;;;;;;;18.80;79.84;97588.86;1808428;78;24487;-87
2021/08/17 02:04:28;;;;;;;;;;;;;;;18.96;79.89;97595.84;1752413;78;20324;-87
2021/08/17 02:06:54;;;;;;;;;;;;;;;19.08;79.89;97598.38;1807129;79;24978;-87
2021/08/17 02:09:20;;;;;;;;;;;;;;;19.11;79.87;97586.06;1808890;79;22048;-87
2021/08/17 02:11:46;;;;;;;;;;;;;;;19.24;79.88;97596.89;1815374;78;25979;-87
2021/08/17 02:14:12;;;;;;;;;;;;;;;19.27;79.81;97594.36;1801677;78;20343;-87
2021/08/17 02:16:38;;;;;;;;;;;;;;;19.26;79.74;97593.53;1801652;79;20266;-87
2021/08/17 02:19:04;;;;;;;;;;;;;;;19.20;79.66;97601.71;1806255;79;20288;-87
2021/08/17 02:21:30;;;;;;;;;;;;;;;19.16;79.59;97603.59;1796719;79;20863;-87
2021/08/17 02:23:56;;;;;;;;;;;;;;;19.15;79.55;97593.97;1806893;79;25923;-87
2021/08/17 02:26:22;;;;;;;;;;;;;;;19.12;79.50;97601.81;1775542;79;24449;-87
2021/08/17 02:28:48;;;;;;;;;;;;;;;19.01;79.49;97609.38;1766647;80;20213;-90
2021/08/17 02:31:14;;;;;;;;;;;;;;;18.86;79.49;97604.05;1771082;80;20224;-90
2021/08/17 02:33:40;;;;;;;;;;;;;;;18.75;79.46;97610.61;1797646;79;21943;-90
2021/08/17 02:36:07;;;;;;;;;;;;;;;18.70;79.48;97607.67;1802416;79;25979;-90
2021/08/17 02:38:32;;;;;;;;;;;;;;;18.64;79.49;97603.08;1803258;79;20859;-90
2021/08/17 02:40:58;;;;;;;;;;;;;;;18.58;79.52;97598.98;1806782;79;20805;-89
2021/08/17 02:43:24;;;;;;;;;;;;;;;18.54;79.53;97601.64;1799906;78;24984;-90
2021/08/17 02:45:52;;;;;;;;;;;;;;;18.62;79.60;97589.66;1800161;78;20266;-90
2021/08/17 02:48:20;;;;;;;;;;;;;;;18.68;79.62;97585.80;1800606;78;26041;-90
2021/08/17 02:50:46;;;;;;;;;;;;;;;18.77;79.69;97579.42;1798964;78;24518;-90
2021/08/17 02:53:15;;;;;;;;;;;;;;;18.86;79.72;97592.62;1799938;78;20465;-91
2021/08/17 02:55:42;;;;;;;;;;;;;;;18.95;79.73;97602.14;1799912;79;24972;-90
2021/08/17 02:58:11;;;;;;;;;;;;;;;19.00;79.71;97613.03;1797916;78;22094;-90
2021/08/17 03:00:37;;;;;;;;;;;;;;;19.03;79.67;97626.77;1800102;78;26881;-90
2021/08/17 03:03:05;;;;;;;;;;;;;;;18.96;79.66;97625.00;1800638;78;25155;-90
2021/08/17 03:05:32;;;;;;;;;;;;;;;18.89;79.66;97620.91;1800168;78;20317;-90
2021/08/17 03:08:05;;;;;;;;;;;;;;;18.88;79.65;97628.54;1802222;78;25704;-90
2021/08/17 03:10:33;;;;;;;;;;;;;;;18.87;79.65;97634.05;1801216;79;22101;-90
2021/08/17 03:13:01;;;;;;;;;;;;;;;18.86;79.65;97642.50;1769400;80;26831;-90
2021/08/17 03:15:32;;;;;;;;;;;;;;;18.82;79.68;97641.18;1768175;80;24515;-90
2021/08/17 03:17:57;;;;;;;;;;;;;;;18.76;79.66;97641.92;1731046;82;20298;-90
2021/08/17 03:20:23;;;;;;;;;;;;;;;18.75;79.65;97648.22;1765363;80;24964;-90
2021/08/17 03:22:50;;;;;;;;;;;;;;;18.75;79.71;97655.67;1744953;81;22809;-90
2021/08/17 03:25:16;;;;;;;;;;;;;;;18.67;79.73;97646.44;1743402;81;25967;-90
2021/08/17 03:27:42;;;;;;;;;;;;;;;18.56;79.71;97639.40;1799938;79;20308;-90
2021/08/17 03:30:09;;;;;;;;;;;;;;;18.53;79.68;97639.73;1800101;78;20295;-90
2021/08/17 03:32:35;;;;;;;;;;;;;;;18.48;79.71;97636.30;1801580;78;25009;-86
2021/08/17 03:35:02;;;;;;;;;;;;;;;18.50;79.75;97648.84;1803724;78;22024;-86
2021/08/17 03:37:34;;;;;;;;;;;;;;;18.50;79.80;97654.64;1798427;79;26061;-86
2021/08/17 03:40:05;;;;;;;;;;;;;;;18.47;79.81;97649.70;1801552;78;24442;-89
2021/08/17 03:42:31;;;;;;;;;;;;;;;18.44;79.82;97657.49;1795395;79;20294;-89
2021/08/17 03:45:04;;;;;;;;;;;;;;;18.37;79.84;97663.19;1797327;78;20467;-89
2021/08/17 03:47:29;;;;;;;;;;;;;;;18.32;79.83;97672.98;1794573;78;22119;-90
2021/08/17 03:49:57;;;;;;;;;;;;;;;18.22;79.85;97686.13;1796699;79;20984;-90
2021/08/17 03:52:23;;;;;;;;;;;;;;;18.12;79.85;97688.96;1753490;79;24425;-89
2021/08/17 03:54:49;;;;;;;;;;;;;;;18.03;79.86;97700.59;1792803;79;20257;-90
2021/08/17 03:57:19;;;;;;;;;;;;;;;17.96;79.89;97704.42;1796404;78;25598;-90
2021/08/17 03:59:45;;;;;;;;;;;;;;;17.90;79.94;97704.27;1798551;79;22063;-91
2021/08/17 04:02:11;;;;;;;;;;;;;;;17.80;80.00;97708.45;1796918;78;21008;-90
2021/08/17 04:04:40;;;;;;;;;;;;;;;17.65;80.01;97705.35;1793370;78;20492;-91
2021/08/17 04:07:07;;;;;;;;;;;;;;;17.57;80.00;97703.01;1796535;78;20263;-91
2021/08/17 04:09:33;;;;;;;;;;;;;;;17.40;79.98;97692.65;1798525;78;24991;-91
2021/08/17 04:11:59;;;;;;;;;;;;;;;17.41;79.99;97711.47;1797266;78;21902;-90
2021/08/17 04:14:35;;;;;;;;;;;;;;;17.33;80.00;97711.00;1793987;78;25513;-90
2021/08/17 04:17:01;;;;;;;;;;;;;;;17.27;80.02;97712.16;1796119;78;24433;-91
2021/08/17 04:19:27;;;;;;;;;;;;;;;17.20;80.04;97719.09;1798376;78;20310;-91
2021/08/17 04:21:53;;;;;;;;;;;;;;;17.10;80.05;97719.27;1794121;78;25622;-91
2021/08/17 04:24:29;;;;;;;;;;;;;;;17.01;80.01;97729.52;1770386;78;22031;-91
2021/08/17 04:26:56;;;;;;;;;;;;;;;17.00;80.00;97731.34;1792417;78;26072;-89
2021/08/17 04:29:24;;;;;;;;;;;;;;;16.98;79.99;97735.13;1773032;79;39676;-89
2021/08/17 04:31:59;;;;;;;;;;;;;;;16.90;79.97;97743.89;1794521;78;20252;-89
2021/08/17 04:34:25;;;;;;;;;;;;;;;16.88;79.95;97760.88;1796813;78;25055;-90
2021/08/17 04:36:51;;;;;;;;;;;;;;;16.85;79.93;97757.26;1795206;79;22010;-89
2021/08/17 04:39:17;;;;;;;;;;;;;;;16.77;79.91;97766.48;1800051;78;21137;-89
2021/08/17 04:41:43;;;;;;;;;;;;;;;16.72;79.87;97776.22;1797282;78;24397;-89
2021/08/17 04:44:09;;;;;;;;;;;;;;;16.70;79.84;97772.90;1799390;78;20315;-89
2021/08/17 04:46:35;;;;;;;;;;;;;;;16.70;79.81;97773.73;1803750;78;25005;-89
2021/08/17 04:49:01;;;;;;;;;;;;;;;16.66;79.79;97770.25;1803016;78;22790;-89
2021/08/17 04:51:28;;;;;;;;;;;;;;;16.57;79.71;97777.80;1803192;78;21195;-89
2021/08/17 04:53:55;;;;;;;;;;;;;;;16.50;79.64;97783.38;1802363;78;24460;-91
2021/08/17 04:56:28;;;;;;;;;;;;;;;16.38;79.56;97781.52;1757835;80;20626;-89
2021/08/17 04:58:54;;;;;;;;;;;;;;;16.36;79.50;97792.76;1800102;79;25022;-89
2021/08/17 05:01:21;;;;;;;;;;;;;;;16.33;79.47;97795.70;1769198;79;20362;-89
2021/08/17 05:03:49;;;;;;;;;;;;;;;16.34;79.46;97805.28;1798840;78;25985;-89
2021/08/17 05:06:18;;;;;;;;;;;;;;;16.35;79.42;97802.98;1800955;79;24479;-89
2021/08/17 05:08:44;;;;;;;;;;;;;;;16.21;79.36;97809.66;1802165;78;20219;-89
2021/08/17 05:11:10;;;;;;;;;;;;;;;16.14;79.29;97821.86;1806097;78;25582;-87
2021/08/17 05:13:40;;;;;;;;;;;;;;;16.08;79.23;97815.05;1776144;79;20297;-87
2021/08/17 05:16:10;;;;;;;;;;;;;;;15.98;79.14;97811.70;1805441;79;26062;-89
2021/08/17 05:18:36;;;;;;;;;;;;;;;15.85;79.03;97814.75;1767643;79;24885;-89
2021/08/17 05:21:02;;;;;;;;;;;;;;;15.79;78.92;97820.64;1764781;80;20538;-88
2021/08/17 05:23:29;;;;;;;;;;;;;;;15.71;78.82;97822.72;1796677;79;24926;-88
2021/08/17 05:25:59;;;;;;;;;;;;;;;15.60;78.73;97822.16;1781186;80;21904;-89
2021/08/17 05:28:25;;;;;;;;;;;;;;;15.60;78.65;97827.44;1778819;80;25984;-89
2021/08/17 05:30:51;;;;;;;;;;;;;;;15.64;78.63;97828.78;1782944;80;20654;-90
2021/08/17 05:33:18;;;;;;;;;;;;;;;15.71;78.63;97827.99;1778251;79;20337;-88
2021/08/17 05:35:44;;;;;;;;;;;;;;;15.74;78.63;97829.51;1785331;80;24965;-89
2021/08/17 05:38:11;;;;;;;;;;;;;;;15.77;78.62;97833.98;1776291;80;20290;-90
2021/08/17 05:40:37;;;;;;;;;;;;;;;15.81;78.63;97839.30;1781145;80;26093;-90
2021/08/17 05:43:04;;;;;;;;;;;;;;;15.87;78.66;97839.98;1785954;80;20243;-91
2021/08/17 05:45:33;;;;;;;;;;;;;;;15.90;78.66;97843.64;1779242;80;20657;-91
2021/08/17 05:48:06;;;;;;;;;;;;;;;15.94;78.66;97837.55;1780001;80;25050;-91
2021/08/17 05:50:32;;;;;;;;;;;;;;;16.02;78.68;97841.58;1779469;79;22133;-90
2021/08/17 05:53:02;;;;;;;;;;;;;;;16.07;78.70;97852.98;1781300;80;26852;-90
2021/08/17 05:55:27;;;;;;;;;;;;;;;16.10;78.71;97862.73;1782747;80;24786;-91
2021/08/17 05:57:57;;;;;;;;;;;;;;;16.13;78.74;97873.48;1776893;80;20240;-90
2021/08/17 06:00:29;;;;;;;;;;;;;;;16.15;78.75;97872.82;1776695;80;24997;-90
2021/08/17 06:02:55;;;;;;;;;;;;;;;16.17;78.72;97876.97;1777630;80;22234;-90
2021/08/17 06:05:21;;;;;;;;;;;;;;;16.21;78.69;97882.77;1782679;80;20870;-90
2021/08/17 06:07:48;;;;;;;;;;;;;;;16.23;78.67;97890.05;1779221;80;25198;-90
2021/08/17 06:10:15;;;;;;;;;;;;;;;16.24;78.65;97893.03;1778680;80;20491;-90
2021/08/17 06:12:41;;;;;;;;;;;;;;;16.23;78.61;97900.61;1760625;80;25018;-90
2021/08/17 06:15:08;;;;;;;;;;;;;;;16.18;78.59;97914.28;1804113;79;21799;-89
2021/08/17 06:17:35;;;;;;;;;;;;;;;16.08;78.52;97924.60;1780338;79;25953;-89
2021/08/17 06:20:02;;;;;;;;;;;;;;;15.93;78.49;97926.94;1765479;80;24542;-89
2021/08/17 06:22:28;;;;;;;;;;;;;;;15.81;78.42;97937.42;1774301;79;20489;-90
2021/08/17 06:24:54;;;;;;;;;;;;;;;15.67;78.32;97942.72;1771242;79;21726;-90
2021/08/17 06:27:20;;;;;;;;;;;;;;;15.53;78.23;97949.85;1780498;79;20946;-91
2021/08/17 06:29:46;;;;;;;;;;;;;;;15.43;78.19;97957.81;1786293;79;21019;-91
2021/08/17 06:32:12;;;;;;;;;;;;;;;15.37;78.15;97964.99;1795257;79;20454;-91
2021/08/17 06:34:38;;;;;;;;;;;;;;;15.29;78.14;97969.33;1798893;79;20824;-91
2021/08/17 06:37:04;;;;;;;;;;;;;;;15.30;78.17;97977.58;1765771;80;20326;-87
2021/08/17 06:39:30;;;;;;;;;;;;;;;15.23;78.18;97985.25;1775141;78;21969;-89
2021/08/17 06:41:56;;;;;;;;;;;;;;;15.09;78.14;97987.06;1775131;79;25961;-90
2021/08/17 06:44:22;;;;;;;;;;;;;;;14.97;78.11;97986.42;1776254;79;20866;-90
2021/08/17 06:46:47;;;;;;;;;;;;;;;14.87;78.09;97992.70;1800253;78;20279;-89
2021/08/17 06:49:19;;;;;;;;;;;;;;;14.81;78.04;97995.91;1802302;78;20814;-89
2021/08/17 06:51:45;;;;;;;;;;;;;;;14.79;78.04;98009.70;1801509;78;22054;-89
2021/08/17 06:54:20;;;;;;;;;;;;;;;14.78;78.07;98008.08;1803727;79;25951;-88
2021/08/17 06:56:46;;;;;;;;;;;;;;;14.80;78.09;98016.16;1803220;78;24392;-86
2021/08/17 06:59:12;;;;;;;;;;;;;;;14.66;78.12;97996.87;1806670;78;20823;-86
2021/08/17 07:01:38;;;;;;;;;;;;;;;14.74;78.13;98002.72;1806247;78;20768;-86
2021/08/17 07:04:04;;;;;;;;;;;;;;;14.77;78.16;98001.97;1810270;78;20363;-86
2021/08/17 07:06:32;;;;;;;;;;;;;;;14.84;78.21;98008.30;1799077;79;26610;-87
2021/08/17 07:09:00;;;;;;;;;;;;;;;14.85;78.25;98002.55;1765147;80;24466;-86
2021/08/17 07:11:30;;;;;;;;;;;;;;;14.85;78.29;98006.02;1796400;79;20237;-86
2021/08/17 07:13:56;;;;;;;;;;;;;;;14.86;78.34;97998.46;1806078;78;25121;-87
2021/08/17 07:16:22;;;;;;;;;;;;;;;14.93;78.39;98003.50;1806796;78;20309;-86
2021/08/17 07:18:48;;;;;;;;;;;;;;;15.05;78.48;97995.73;1814520;78;26138;-86
2021/08/17 07:21:14;;;;;;;;;;;;;;;15.08;78.56;97991.50;1809312;78;26453;-86
2021/08/17 07:23:40;;;;;;;;;;;;;;;15.13;78.58;97988.91;1808237;79;20261;-86
2021/08/17 07:26:07;;;;;;;;;;;;;;;15.22;78.64;97990.17;1811513;78;24985;-86
2021/08/17 07:28:41;;;;;;;;;;;;;;;15.31;78.67;97993.75;1764607;79;22047;-87
2021/08/17 07:31:08;;;;;;;;;;;;;;;15.38;78.72;97992.19;1783013;79;25990;-88
2021/08/17 07:33:34;;;;;;;;;;;;;;;15.40;78.70;97989.73;1782258;80;24326;-88
2021/08/17 07:36:00;;;;;;;;;;;;;;;15.54;78.71;97991.56;1786163;79;20325;-87
2021/08/17 07:38:26;;;;;;;;;;;;;;;15.65;78.68;97993.50;1761418;80;20261;-90
2021/08/17 07:40:52;;;;;;;;;;;;;;;15.80;78.64;97997.28;1762026;80;20269;-89
2021/08/17 07:43:18;;;;;;;;;;;;;;;15.79;78.61;97999.57;1800890;79;25988;-90
2021/08/17 07:45:44;;;;;;;;;;;;;;;15.73;78.56;98008.08;1764468;79;24487;-89
2021/08/17 07:48:14;;;;;;;;;;;;;;;15.70;78.48;98004.44;1772025;78;20296;-89
2021/08/17 07:50:41;;;;;;;;;;;;;;;15.66;78.41;98006.17;1776149;79;25755;-89
2021/08/17 07:53:08;;;;;;;;;;;;;;;15.64;78.35;98008.98;1769459;79;22598;-89
2021/08/17 07:55:34;;;;;;;;;;;;;;;15.67;78.31;98006.04;1804269;79;27889;-89
2021/08/17 07:58:01;;;;;;;;;;;;;;;15.66;78.24;98012.28;1801465;78;24630;-89
2021/08/17 08:00:27;;;;;;;;;;;;;;;15.78;78.18;98011.59;1804540;77;20763;-89
2021/08/17 08:02:53;;;;;;;;;;;;;;;15.88;78.17;98013.66;1803359;79;20332;-89
2021/08/17 08:05:19;;;;;;;;;;;;;;;15.87;78.07;98010.70;1800926;79;22041;-89
2021/08/17 08:07:46;;;;;;;;;;;;;;;15.96;78.07;98012.91;1808305;78;25989;-89
2021/08/17 08:10:13;;;;;;;;;;;;;;;16.07;78.08;98032.48;1757645;81;24585;-90
2021/08/17 08:12:39;;;;;;;;;;;;;;;16.24;78.01;98032.48;1792449;79;20251;-90
2021/08/17 08:15:08;;;;;;;;;;;;;;;16.34;78.01;98023.15;1796903;79;24989;-89
2021/08/17 08:17:35;;;;;;;;;;;;;;;16.45;77.97;98036.60;1788882;79;21469;-89
2021/08/17 08:20:01;;;;;;;;;;;;;;;16.53;77.95;98040.64;1775994;79;26034;-89
2021/08/17 08:22:27;;;;;;;;;;;;;;;16.57;77.86;98038.85;1778483;79;20237;-89
2021/08/17 08:24:53;;;;;;;;;;;;;;;16.64;77.79;98045.19;1809226;78;20750;-89
2021/08/17 08:27:19;;;;;;;;;;;;;;;16.64;77.71;98055.75;1804686;79;24910;-89
2021/08/17 08:29:45;;;;;;;;;;;;;;;16.68;77.59;98072.15;1804223;78;21969;-89
2021/08/17 08:32:12;;;;;;;;;;;;;;;16.72;77.52;98071.68;1804463;78;26001;-88
2021/08/17 08:34:38;;;;;;;;;;;;;;;16.76;77.48;98066.91;1808887;79;24420;-88
2021/08/17 08:37:04;;;;;;;;;;;;;;;16.75;77.39;98065.24;1808266;79;20547;-88
2021/08/17 08:39:31;;;;;;;;;;;;;;;16.76;77.29;98065.59;1804113;78;20533;-89
2021/08/17 08:41:58;;;;;;;;;;;;;;;16.78;77.24;98065.44;1803925;79;22070;-88
2021/08/17 08:44:30;;;;;;;;;;;;;;;16.78;77.19;98058.34;1807526;78;26009;-89
2021/08/17 08:46:56;;;;;;;;;;;;;;;16.83;77.04;98062.67;1809378;78;24664;-89
2021/08/17 08:49:22;;;;;;;;;;;;;;;16.89;76.96;98063.38;1807829;78;20549;-89
2021/08/17 08:51:48;;;;;;;;;;;;;;;16.88;76.91;98056.42;1805862;78;25034;-89
2021/08/17 08:54:14;;;;;;;;;;;;;;;16.87;76.83;98069.78;1806262;78;21966;-89
2021/08/17 08:56:40;;;;;;;;;;;;;;;16.87;76.78;98065.82;1801586;78;26082;-89
2021/08/17 08:59:11;;;;;;;;;;;;;;;16.94;76.70;98074.80;1800671;78;24576;-89
2021/08/17 09:01:34;;;;;;;;;;;;;;;16.96;76.60;98074.99;1801378;78;20330;-90
2021/08/17 09:04:00;;;;;;;;;;;;;;;16.98;76.49;98068.20;1808881;78;20232;-89
2021/08/17 09:06:27;;;;;;;;;;;;;;;16.97;76.39;98066.54;1808206;78;21965;-89
2021/08/17 09:09:13;;;;;;;;;;;;;;;17.00;76.37;98078.14;1806615;78;26064;-90
2021/08/17 09:11:41;;;;;;;;;;;;;;;16.98;76.32;98080.09;1807591;78;24583;-90
2021/08/17 09:14:26;;;;;;;;;;;;;;;17.00;76.29;98081.62;1807075;78;20258;-90
2021/08/17 09:16:53;;;;;;;;;;;;;;;16.94;76.26;98086.20;1808308;78;25287;-89
2021/08/17 09:19:32;;;;;;;;;;;;;;;16.92;76.23;98086.00;1803461;78;22031;-90
2021/08/17 09:22:01;;;;;;;;;;;;;;;16.88;76.18;98089.46;1793850;79;26134;-90
2021/08/17 09:24:34;;;;;;;;;;;;;;;16.91;76.19;98101.03;1760635;80;24728;-90
2021/08/17 09:27:02;;;;;;;;;;;;;;;16.95;76.12;98098.44;1801247;78;20305;-90
2021/08/17 09:29:36;;;;;;;;;;;;;;;17.11;76.12;98097.22;1762348;80;24969;-86
2021/08/17 09:32:08;;;;;;;;;;;;;;;17.25;76.10;98093.64;1764663;80;22806;-87
2021/08/17 09:34:34;;;;;;;;;;;;;;;17.39;76.08;98102.33;1769078;79;26012;-86
2021/08/17 09:37:04;;;;;;;;;;;;;;;17.34;76.04;98098.84;1771921;80;24534;-86
2021/08/17 09:39:40;;;;;;;;;;;;;;;17.32;76.00;98098.65;1771638;80;20519;-86
2021/08/17 09:42:07;;;;;;;;;;;;;;;17.37;75.98;98101.65;1771229;80;24814;-86
2021/08/17 09:44:34;;;;;;;;;;;;;;;17.51;75.97;98098.42;1775636;79;21979;-86
2021/08/17 09:46:59;;;;;;;;;;;;;;;17.57;75.91;98099.08;1745481;79;21164;-86
2021/08/17 09:49:27;;;;;;;;;;;;;;;17.57;75.89;98105.70;1775030;79;20762;-88
2021/08/17 09:51:53;;;;;;;;;;;;;;;17.63;75.91;98101.63;1796569;79;20214;-87
2021/08/17 09:54:26;;;;;;;;;;;;;;;17.69;75.90;98104.47;1804258;78;24981;-87
2021/08/17 09:56:57;;;;;;;;;;;;;;;17.61;75.82;98105.77;1803869;78;21968;-87
2021/08/17 09:59:28;;;;;;;;;;;;;;;17.54;75.71;98116.13;1761549;80;25970;-87
2021/08/17 10:01:55;;;;;;;;;;;;;;;17.47;75.62;98110.29;1757612;80;24445;-87
2021/08/17 10:04:24;;;;;;;;;;;;;;;17.46;75.55;98101.52;1766085;80;20294;-87
2021/08/17 10:06:54;;;;;;;;;;;;;;;17.54;75.62;98104.22;1767390;80;25126;-86
2021/08/17 10:09:25;;;;;;;;;;;;;;;17.56;75.60;98100.09;1800429;77;22776;-87
2021/08/17 10:11:53;;;;;;;;;;;;;;;17.54;75.55;98100.25;1769848;80;26067;-87
2021/08/17 10:14:24;;;;;;;;;;;;;;;17.56;75.47;98107.52;1802206;78;24593;-88
2021/08/17 10:16:50;;;;;;;;;;;;;;;17.57;75.42;98107.02;1774845;79;20307;-88
2021/08/17 10:19:18;;;;;;;;;;;;;;;17.57;75.41;98111.83;1801506;78;25036;-88
2021/08/17 10:21:45;;;;;;;;;;;;;;;17.55;75.32;98111.66;1804378;78;22054;-88
2021/08/17 10:24:28;;;;;;;;;;;;;;;17.52;75.28;98086.83;1758539;80;26002;-88
2021/08/17 10:27:13;;;;;;;;;;;;;;;17.59;75.19;98097.13;1764804;80;25124;-88
2021/08/17 10:29:40;;;;;;;;;;;;;;;17.67;75.20;98102.49;1766570;79;20429;-88
2021/08/17 10:32:06;;;;;;;;;;;;;;;17.75;75.20;98102.51;1768019;79;24974;-87
2021/08/17 10:34:37;;;;;;;;;;;;;;;17.78;75.14;98104.02;1800184;78;21910;-88
2021/08/17 10:37:05;;;;;;;;;;;;;;;17.82;75.07;98100.89;1806839;78;25832;-87
2021/08/17 10:39:31;;;;;;;;;;;;;;;17.82;74.99;98098.23;1773149;79;25275;-87
2021/08/17 10:41:59;;;;;;;;;;;;;;;17.82;74.88;98092.94;1793747;79;20295;-88
2021/08/17 10:44:27;;;;;;;;;;;;;;;17.81;74.81;98092.61;1764289;80;25060;-86
2021/08/17 10:46:55;;;;;;;;;;;;;;;17.82;74.76;98090.30;1764808;79;22222;-89
2021/08/17 10:49:32;;;;;;;;;;;;;;;17.78;74.54;98095.55;1774279;79;26129;-88
2021/08/17 10:52:06;;;;;;;;;;;;;;;17.69;74.36;98087.75;1776432;79;25447;-88
2021/08/17 10:54:33;;;;;;;;;;;;;;;17.74;74.26;98099.52;1802552;79;20299;-88
2021/08/17 10:57:06;;;;;;;;;;;;;;;17.82;74.31;98100.89;1799380;79;24596;-87
2021/08/17 10:59:44;;;;;;;;;;;;;;;17.92;74.32;98098.92;1788459;79;22623;-87
2021/08/17 11:02:11;;;;;;;;;;;;;;;18.03;74.37;98102.26;1804691;77;25943;-86
2021/08/17 11:04:42;;;;;;;;;;;;;;;18.09;74.27;98110.39;1807323;78;24337;-86
2021/08/17 11:07:29;;;;;;;;;;;;;;;18.14;74.09;98116.52;1796724;79;20216;-86
2021/08/17 11:09:56;;;;;;;;;;;;;;;18.30;73.98;98110.75;1800627;79;25019;-86
2021/08/17 11:12:24;;;;;;;;;;;;;;;18.45;73.86;98109.60;1781322;79;21981;-85
2021/08/17 11:14:50;;;;;;;;;;;;;;;18.47;73.70;98112.93;1800989;78;26285;-86
2021/08/17 11:17:17;;;;;;;;;;;;;;;18.45;73.42;98114.91;1804849;77;24413;-85
2021/08/17 11:19:48;;;;;;;;;;;;;;;18.46;73.16;98111.27;1808100;77;20316;-86
2021/08/17 11:22:17;;;;;;;;;;;;;;;18.53;73.01;98120.23;1801210;78;25176;-86
2021/08/17 11:24:46;;;;;;;;;;;;;;;18.66;72.88;98105.16;1799569;79;22987;-86
2021/08/17 11:27:18;;;;;;;;;;;;;;;18.73;72.59;98101.70;1808125;78;25983;-85
2021/08/17 11:29:46;;;;;;;;;;;;;;;18.81;72.31;98106.18;1801596;78;25072;-85
2021/08/17 11:32:13;;;;;;;;;;;;;;;18.86;72.13;98106.50;1803686;78;20282;-85
2021/08/17 11:34:41;;;;;;;;;;;;;;;18.88;71.88;98110.30;1802277;78;24970;-85
2021/08/17 11:37:11;;;;;;;;;;;;;;;18.89;71.66;98110.13;1803466;78;22829;-85
2021/08/17 11:39:48;;;;;;;;;;;;;;;18.81;71.44;98100.88;1803346;79;26677;-86
2021/08/17 11:42:16;;;;;;;;;;;;;;;18.77;71.12;98116.77;1800969;79;24351;-85
2021/08/17 11:44:43;;;;;;;;;;;;;;;18.69;70.82;98120.27;1801326;79;20263;-85
2021/08/17 11:47:10;;;;;;;;;;;;;;;18.53;70.57;98120.72;1804156;79;24981;-85
2021/08/17 11:49:36;;;;;;;;;;;;;;;18.34;70.23;98121.84;1797294;78;22797;-86
2021/08/17 11:52:09;;;;;;;;;;;;;;;18.17;69.96;98118.83;1810474;78;26697;-85
2021/08/17 11:54:43;;;;;;;;;;;;;;;18.09;69.77;98128.09;1804839;78;24550;-87
2021/08/17 11:57:18;;;;;;;;;;;;;;;18.13;69.71;98128.09;1805682;79;20234;-88
2021/08/17 11:59:45;;;;;;;;;;;;;;;18.19;69.72;98126.96;1780706;79;25685;-86
2021/08/17 12:02:13;;;;;;;;;;;;;;;18.31;69.75;98123.02;1799834;78;22034;-86
2021/08/17 12:04:40;;;;;;;;;;;;;;;18.45;69.76;98122.86;1801646;78;26051;-87
2021/08/17 12:07:08;;;;;;;;;;;;;;;18.57;69.77;98120.75;1804678;78;25262;-87
2021/08/17 12:09:46;;;;;;;;;;;;;;;18.73;69.77;98111.47;1801471;78;20277;-87
2021/08/17 12:12:14;;;;;;;;;;;;;;;18.87;69.71;98099.38;1803800;78;25048;-86
2021/08/17 12:14:43;;;;;;;;;;;;;;;18.96;69.63;98103.67;1781844;78;22792;-87
2021/08/17 12:17:10;;;;;;;;;;;;;;;18.98;69.51;98101.19;1804536;78;26869;-89
2021/08/17 12:19:38;;;;;;;;;;;;;;;18.93;69.27;98104.02;1804479;78;24398;-90
2021/08/17 12:22:23;;;;;;;;;;;;;;;18.90;69.12;98105.17;1811016;78;20344;-86
2021/08/17 12:25:00;;;;;;;;;;;;;;;18.85;68.84;98110.64;1803384;79;25759;-86
2021/08/17 12:27:27;;;;;;;;;;;;;;;18.85;68.63;98104.84;1802688;78;21899;-86
2021/08/17 12:29:59;;;;;;;;;;;;;;;18.80;68.40;98111.98;1812483;79;26056;-86
2021/08/17 12:32:31;;;;;;;;;;;;;;;18.80;68.16;98115.95;1805303;78;24491;-86
2021/08/17 12:35:06;;;;;;;;;;;;;;;18.91;68.07;98109.97;1806068;78;20199;-87
2021/08/17 12:37:37;;;;;;;;;;;;;;;19.06;68.01;98108.30;1802843;78;25007;-86
2021/08/17 12:40:09;;;;;;;;;;;;;;;19.10;67.82;98108.28;1808855;79;22114;-86
2021/08/17 12:42:43;;;;;;;;;;;;;;;19.06;67.58;98113.59;1807792;79;26020;-86
2021/08/17 12:45:17;;;;;;;;;;;;;;;18.99;67.31;98100.67;1808046;79;24669;-86
2021/08/17 12:47:57;;;;;;;;;;;;;;;18.97;67.02;98104.00;1804366;79;20261;-86
2021/08/17 12:50:28;;;;;;;;;;;;;;;18.97;66.81;98110.63;1807695;77;25038;-88
2021/08/17 12:52:53;;;;;;;;;;;;;;;18.97;66.63;98107.98;1805372;77;22034;-86